createdAt,value
2023-03-31T00:01:44.273Z,99969.66
2023-03-31T00:04:13.352Z,100036.19
2023-03-31T00:06:42.049Z,100028.03
2023-03-31T00:09:11.883Z,100034.34
2023-03-31T00:11:39.050Z,100036.38
2023-03-31T00:14:08.528Z,100031.38
2023-03-31T00:16:36.523Z,100026.00
2023-03-31T00:19:03.354Z,99944.28
2023-03-31T00:21:33.613Z,100010.34
2023-03-31T00:24:04.313Z,100018.47
2023-03-31T00:26:31.479Z,99989.31
2023-03-31T00:28:58.780Z,99951.16
2023-03-31T00:31:25.588Z,99986.72
2023-03-31T00:33:52.049Z,99973.88
2023-03-31T00:36:21.774Z,99974.88
2023-03-31T00:38:49.152Z,99993.72
2023-03-31T00:41:16.124Z,99973.03
2023-03-31T00:44:00.833Z,99942.06
2023-03-31T00:46:33.613Z,99993.88
2023-03-31T00:49:00.287Z,99999.22
2023-03-31T00:51:29.666Z,99958.38
2023-03-31T00:54:00.772Z,99964.56
2023-03-31T00:56:32.578Z,99992.38
2023-03-31T00:59:03.815Z,99961.88
2023-03-31T01:01:31.227Z,99958.22
2023-03-31T01:03:59.675Z,99949.88
2023-03-31T01:06:26.327Z,99975.88
2023-03-31T01:08:53.151Z,99973.19
2023-03-31T01:11:24.398Z,99975.50
2023-03-31T01:13:53.100Z,99943.63
2023-03-31T01:16:19.733Z,99915.31
2023-03-31T01:18:49.943Z,99952.97
2023-03-31T01:21:57.026Z,99950.41
2023-03-31T01:24:35.687Z,99960.28
2023-03-31T01:27:28.115Z,99876.41
2023-03-31T01:30:36.238Z,99948.72
2023-03-31T01:33:27.027Z,99935.06
2023-03-31T01:36:02.667Z,99937.03
2023-03-31T01:38:32.257Z,99934.53
2023-03-31T01:41:06.390Z,99913.19
2023-03-31T01:43:41.610Z,99908.84
2023-03-31T01:46:17.247Z,99924.47
2023-03-31T01:49:08.368Z,99898.47
2023-03-31T01:51:40.939Z,99922.81
2023-03-31T01:54:19.328Z,99923.66
2023-03-31T01:57:00.400Z,99912.28
2023-03-31T01:59:31.245Z,99917.94
2023-03-31T02:02:10.779Z,99841.13
2023-03-31T02:04:48.329Z,99910.59
2023-03-31T02:07:19.729Z,99913.25
2023-03-31T02:09:53.531Z,99887.19
2023-03-31T02:12:22.419Z,99902.56
2023-03-31T02:14:52.712Z,99900.16
2023-03-31T02:17:23.462Z,99880.00
2023-03-31T02:19:53.499Z,99861.53
2023-03-31T02:22:23.982Z,99824.19
2023-03-31T02:24:53.466Z,99888.28
2023-03-31T02:27:31.327Z,99861.28
2023-03-31T02:29:58.607Z,99870.81
2023-03-31T02:32:39.129Z,99828.34
2023-03-31T02:35:08.017Z,99869.44
2023-03-31T02:37:34.850Z,99824.66
2023-03-31T02:40:10.483Z,99837.84
2023-03-31T02:42:41.774Z,99873.66
2023-03-31T02:45:48.140Z,99844.47
2023-03-31T02:48:26.238Z,99851.75
2023-03-31T02:51:16.502Z,99847.63
2023-03-31T02:54:01.568Z,99846.06
2023-03-31T02:56:33.798Z,99842.63
2023-03-31T02:59:28.520Z,99843.63
2023-03-31T03:02:10.795Z,99803.03
2023-03-31T03:04:37.295Z,99837.13
2023-03-31T03:07:10.017Z,99837.31
2023-03-31T03:09:55.166Z,99800.97
2023-03-31T03:12:28.915Z,99807.16
2023-03-31T03:15:21.531Z,99793.78
2023-03-31T03:17:49.013Z,99772.50
2023-03-31T03:20:19.283Z,99816.81
2023-03-31T03:22:45.832Z,99822.75
2023-03-31T03:25:17.208Z,99778.47
2023-03-31T03:27:44.379Z,99750.34
2023-03-31T03:30:12.285Z,99804.97
2023-03-31T03:32:39.086Z,99791.94
2023-03-31T03:35:06.810Z,99784.81
2023-03-31T03:37:36.793Z,99777.00
2023-03-31T03:40:05.979Z,99754.03
2023-03-31T03:42:33.825Z,99731.69
2023-03-31T03:45:01.326Z,99798.69
2023-03-31T03:47:28.513Z,99800.13
2023-03-31T03:49:55.051Z,99779.00
2023-03-31T03:52:21.515Z,99732.19
2023-03-31T03:54:48.407Z,99737.84
2023-03-31T03:57:15.062Z,99790.28
2023-03-31T03:59:41.501Z,99779.59
2023-03-31T04:02:08.201Z,99689.34
2023-03-31T04:04:34.850Z,99772.63
2023-03-31T04:07:01.429Z,99755.41
2023-03-31T04:09:28.574Z,99772.22
2023-03-31T04:11:55.319Z,99730.63
2023-03-31T04:14:21.858Z,99733.13
2023-03-31T04:16:48.858Z,99768.72
2023-03-31T04:19:17.683Z,99719.75
2023-03-31T04:21:50.651Z,99751.91
2023-03-31T04:24:21.713Z,99754.34
2023-03-31T04:26:50.552Z,99734.56
2023-03-31T04:29:17.691Z,99675.91
2023-03-31T04:31:44.414Z,99744.13
2023-03-31T04:34:15.595Z,99741.28
2023-03-31T04:36:47.831Z,99655.22
2023-03-31T04:39:17.144Z,99730.59
2023-03-31T04:41:44.249Z,99712.13
2023-03-31T04:44:10.809Z,99674.50
2023-03-31T04:46:37.479Z,99697.78
2023-03-31T04:49:05.628Z,99637.81
2023-03-31T04:51:32.174Z,99689.25
2023-03-31T04:53:58.593Z,99650.69
2023-03-31T04:56:25.747Z,99672.41
2023-03-31T04:58:52.205Z,99640.16
2023-03-31T05:01:18.696Z,99696.16
2023-03-31T05:03:48.288Z,99642.25
2023-03-31T05:06:17.732Z,99683.09
2023-03-31T05:08:44.749Z,99620.88
2023-03-31T05:11:11.242Z,99650.16
2023-03-31T05:13:37.743Z,99638.78
2023-03-31T05:16:09.742Z,99645.91
2023-03-31T05:18:36.646Z,99649.88
2023-03-31T05:21:15.507Z,99652.50
2023-03-31T05:23:42.300Z,99623.47
2023-03-31T05:26:09.574Z,99648.16
2023-03-31T05:28:36.757Z,99648.00
2023-03-31T05:31:07.965Z,99649.44
2023-03-31T05:33:34.992Z,99649.63
2023-03-31T05:36:01.500Z,99642.06
2023-03-31T05:38:31.660Z,99650.94
2023-03-31T05:40:58.467Z,99638.16
2023-03-31T05:43:28.137Z,99623.25
2023-03-31T05:45:54.630Z,99607.44
2023-03-31T05:48:21.464Z,99625.28
2023-03-31T05:50:48.215Z,99587.34
2023-03-31T05:53:14.654Z,99632.69
2023-03-31T05:55:41.368Z,99600.25
2023-03-31T05:58:08.691Z,99608.69
2023-03-31T06:00:36.332Z,99627.44
2023-03-31T06:03:03.187Z,99590.59
2023-03-31T06:05:31.182Z,99633.72
2023-03-31T06:07:57.853Z,99616.19
2023-03-31T06:10:24.648Z,99578.47
2023-03-31T06:12:51.141Z,99592.56
2023-03-31T06:15:17.603Z,99615.09
2023-03-31T06:17:44.182Z,99592.94
2023-03-31T06:20:24.600Z,99611.00
2023-03-31T06:22:53.326Z,99595.78
2023-03-31T06:25:19.917Z,99597.94
2023-03-31T06:27:46.406Z,99578.00
2023-03-31T06:30:22.624Z,99604.00
2023-03-31T06:32:49.391Z,99563.16
2023-03-31T06:35:15.894Z,99580.22
2023-03-31T06:37:42.399Z,99607.25
2023-03-31T06:40:09.616Z,99578.47
2023-03-31T06:42:36.111Z,99536.28
2023-03-31T06:45:02.570Z,99568.97
2023-03-31T06:47:28.970Z,99552.06
2023-03-31T06:49:55.586Z,99575.84
2023-03-31T06:52:22.021Z,99590.88
2023-03-31T06:54:48.474Z,99525.78
2023-03-31T06:57:15.009Z,99595.75
2023-03-31T06:59:41.537Z,99595.84
2023-03-31T07:02:10.238Z,99604.16
2023-03-31T07:04:36.869Z,99516.31
2023-03-31T07:07:03.393Z,99542.47
2023-03-31T07:09:29.870Z,99582.88
2023-03-31T07:11:56.875Z,99527.53
2023-03-31T07:14:23.591Z,99515.97
2023-03-31T07:16:50.848Z,99574.59
2023-03-31T07:19:17.588Z,99542.03
2023-03-31T07:21:44.042Z,99548.09
2023-03-31T07:24:10.576Z,99572.22
2023-03-31T07:26:37.056Z,99555.69
2023-03-31T07:29:03.539Z,99538.53
2023-03-31T07:31:30.334Z,99589.44
2023-03-31T07:33:57.034Z,99538.38
2023-03-31T07:36:23.803Z,99499.28
2023-03-31T07:38:50.243Z,99556.75
2023-03-31T07:41:20.297Z,99552.91
2023-03-31T07:43:50.522Z,99524.59
2023-03-31T07:46:19.219Z,99560.75
2023-03-31T07:48:47.291Z,99485.72
2023-03-31T07:51:22.799Z,99535.44
2023-03-31T07:53:49.519Z,99539.59
2023-03-31T07:56:17.127Z,99543.34
2023-03-31T07:58:44.496Z,99541.50
2023-03-31T08:01:17.261Z,99534.28
2023-03-31T08:03:45.425Z,99510.38
2023-03-31T08:06:12.525Z,99535.50
2023-03-31T08:08:43.182Z,99542.53
2023-03-31T08:11:11.178Z,99478.13
2023-03-31T08:13:37.651Z,99518.28
2023-03-31T08:16:04.634Z,99477.22
2023-03-31T08:18:31.497Z,99522.75
2023-03-31T08:20:58.155Z,99467.44
2023-03-31T08:23:24.638Z,99500.09
2023-03-31T08:25:53.183Z,99474.97
2023-03-31T08:28:19.747Z,99510.22
2023-03-31T08:30:46.399Z,99512.47
2023-03-31T08:33:13.082Z,99483.03
2023-03-31T08:35:39.742Z,99511.03
2023-03-31T08:38:06.379Z,99511.59
2023-03-31T08:40:33.689Z,99479.06
2023-03-31T08:43:08.826Z,99485.63
2023-03-31T08:45:39.662Z,99457.72
2023-03-31T08:48:25.692Z,99452.88
2023-03-31T08:51:05.541Z,99458.41
2023-03-31T08:53:39.295Z,99501.94
2023-03-31T08:56:14.762Z,99489.94
2023-03-31T08:58:44.572Z,99427.91
2023-03-31T09:01:22.772Z,99491.97
2023-03-31T09:04:12.840Z,99478.75
2023-03-31T09:06:39.587Z,99481.91
2023-03-31T09:09:28.341Z,99475.41
2023-03-31T09:11:58.635Z,99466.66
2023-03-31T09:14:28.933Z,99469.84
2023-03-31T09:17:01.565Z,99470.47
2023-03-31T09:19:43.409Z,99468.13
2023-03-31T09:22:18.561Z,99446.88
2023-03-31T09:24:59.111Z,99455.09
2023-03-31T09:27:28.560Z,99435.44
2023-03-31T09:30:22.433Z,99450.69
2023-03-31T09:32:53.657Z,99416.13
2023-03-31T09:35:23.204Z,99434.31
2023-03-31T09:37:50.266Z,99426.00
2023-03-31T09:40:20.078Z,99398.56
2023-03-31T09:42:51.349Z,99429.88
2023-03-31T09:45:20.142Z,99389.72
2023-03-31T09:47:52.117Z,99338.78
2023-03-31T09:50:19.055Z,99420.66
2023-03-31T09:52:57.020Z,99359.78
2023-03-31T09:55:45.464Z,99421.34
2023-03-31T09:58:15.080Z,99388.47
2023-03-31T10:00:43.989Z,99416.00
2023-03-31T10:03:14.372Z,99404.50
2023-03-31T10:06:00.486Z,99400.44
2023-03-31T10:08:39.708Z,99406.69
2023-03-31T10:11:06.959Z,99401.75
2023-03-31T10:14:04.987Z,99400.16
2023-03-31T10:16:53.763Z,99402.03
2023-03-31T10:19:31.681Z,99370.22
2023-03-31T10:22:21.694Z,99394.63
2023-03-31T10:24:50.451Z,99401.88
2023-03-31T10:27:26.395Z,99409.28
2023-03-31T10:30:13.185Z,99341.88
2023-03-31T10:32:43.140Z,99394.59
2023-03-31T10:35:29.992Z,99360.50
2023-03-31T10:38:06.570Z,99390.06
2023-03-31T10:40:35.222Z,99386.16
2023-03-31T10:43:26.274Z,99380.78
2023-03-31T10:45:59.905Z,99374.22
2023-03-31T10:48:29.971Z,99352.75
2023-03-31T10:51:17.056Z,99365.41
2023-03-31T10:53:49.238Z,99340.84
2023-03-31T10:56:42.860Z,99365.44
2023-03-31T10:59:15.427Z,99356.38
2023-03-31T11:02:00.336Z,99351.63
2023-03-31T11:04:44.621Z,99355.94
2023-03-31T11:07:27.459Z,99347.72
2023-03-31T11:10:20.333Z,99335.50
2023-03-31T11:13:11.381Z,99333.25
2023-03-31T11:15:56.139Z,99338.81
2023-03-31T11:18:36.068Z,99333.25
2023-03-31T11:21:18.166Z,99338.00
2023-03-31T11:23:58.936Z,99267.97
2023-03-31T11:27:16.555Z,99333.44
2023-03-31T11:29:52.752Z,99270.47
2023-03-31T11:32:52.114Z,99324.78
2023-03-31T11:35:38.520Z,99315.06
2023-03-31T11:38:33.700Z,99323.09
2023-03-31T11:41:13.612Z,99279.34
2023-03-31T11:43:51.140Z,99304.94
2023-03-31T11:46:23.745Z,99286.34
2023-03-31T11:48:59.799Z,99302.06
2023-03-31T11:51:34.723Z,99311.75
2023-03-31T11:54:11.927Z,99305.34
2023-03-31T11:56:41.139Z,99268.72
2023-03-31T11:59:14.821Z,99314.63
2023-03-31T12:01:51.632Z,99228.81
2023-03-31T12:04:33.640Z,99270.53
2023-03-31T12:07:14.995Z,99284.34
2023-03-31T12:09:53.361Z,99298.16
2023-03-31T12:12:27.221Z,99287.63
2023-03-31T12:15:02.557Z,99258.66
2023-03-31T12:17:29.538Z,99284.06
2023-03-31T12:20:10.473Z,99294.19
2023-03-31T12:22:43.751Z,99250.16
2023-03-31T12:25:27.998Z,99287.78
2023-03-31T12:27:56.504Z,99276.41
2023-03-31T12:30:38.760Z,99271.66
2023-03-31T12:33:14.056Z,99212.09
2023-03-31T12:35:50.826Z,99273.91
2023-03-31T12:38:24.610Z,99257.16
2023-03-31T12:41:19.141Z,99268.31
2023-03-31T12:44:23.917Z,99264.44
2023-03-31T12:47:29.679Z,99260.09
2023-03-31T12:50:35.280Z,99255.56
2023-03-31T12:53:35.930Z,99257.66
2023-03-31T12:56:02.731Z,99229.94
2023-03-31T12:58:32.427Z,99244.44
2023-03-31T13:01:05.153Z,99241.59
2023-03-31T13:03:35.342Z,99229.19
2023-03-31T13:06:04.004Z,99238.72
2023-03-31T13:08:51.465Z,99231.94
2023-03-31T13:11:20.284Z,99232.75
2023-03-31T13:14:17.516Z,99224.53
2023-03-31T13:16:44.092Z,99220.25
2023-03-31T13:19:24.593Z,99158.50
2023-03-31T13:21:54.915Z,99215.13
2023-03-31T13:24:22.465Z,99211.38
2023-03-31T13:26:49.691Z,99191.78
2023-03-31T13:29:16.404Z,99205.16
2023-03-31T13:32:01.246Z,99202.69
2023-03-31T13:34:47.979Z,99205.19
2023-03-31T13:37:33.108Z,99204.75
2023-03-31T13:40:50.129Z,99201.22
2023-03-31T13:43:36.741Z,99199.78
2023-03-31T13:46:34.458Z,99198.28
2023-03-31T13:49:19.874Z,99199.31
2023-03-31T13:52:10.175Z,99121.97
2023-03-31T13:54:39.323Z,99192.66
2023-03-31T13:57:39.806Z,99170.41
2023-03-31T14:00:44.005Z,99191.84
2023-03-31T14:03:13.593Z,99188.38
2023-03-31T14:05:45.509Z,99186.72
2023-03-31T14:08:19.916Z,99126.09
2023-03-31T14:10:46.380Z,99149.41
2023-03-31T14:13:14.882Z,99188.59
2023-03-31T14:15:53.598Z,99185.06
2023-03-31T14:18:30.244Z,99185.31
2023-03-31T14:21:17.934Z,99154.34
2023-03-31T14:24:28.879Z,99181.13
2023-03-31T14:27:12.675Z,99190.22
2023-03-31T14:29:55.150Z,99159.06
2023-03-31T14:33:09.796Z,99186.25
2023-03-31T14:35:44.245Z,99174.72
2023-03-31T14:38:15.923Z,99071.22
2023-03-31T14:40:48.547Z,99139.50
2023-03-31T14:43:36.834Z,99149.56
2023-03-31T14:46:08.658Z,99167.28
2023-03-31T14:48:45.089Z,99133.88
2023-03-31T14:51:14.397Z,99076.94
2023-03-31T14:53:41.034Z,99140.63
2023-03-31T14:56:12.439Z,99160.56
2023-03-31T14:58:44.252Z,99167.09
2023-03-31T15:01:17.372Z,99171.75
2023-03-31T15:03:44.917Z,99137.38
2023-03-31T15:06:11.750Z,99163.50
2023-03-31T15:08:38.741Z,99164.00
2023-03-31T15:11:12.851Z,99140.25
2023-03-31T15:14:00.590Z,99152.00
2023-03-31T15:16:42.153Z,99158.16
2023-03-31T15:19:16.938Z,99161.47
2023-03-31T15:21:44.405Z,99162.47
2023-03-31T15:24:14.948Z,99039.50
2023-03-31T15:26:46.049Z,99163.66
2023-03-31T15:29:19.764Z,99159.19
2023-03-31T15:31:47.211Z,99179.28
2023-03-31T15:34:30.789Z,99115.78
2023-03-31T15:36:57.859Z,99159.72
2023-03-31T15:39:27.929Z,99129.63
2023-03-31T15:41:56.539Z,99145.91
2023-03-31T15:44:30.406Z,99168.44
2023-03-31T15:47:01.900Z,99156.91
2023-03-31T15:49:29.477Z,99163.06
2023-03-31T15:52:01.229Z,99171.13
2023-03-31T15:54:43.132Z,99125.75
2023-03-31T15:57:17.837Z,99176.91
2023-03-31T15:59:57.860Z,99149.88
2023-03-31T16:02:46.861Z,99160.78
2023-03-31T16:05:29.385Z,99176.50
2023-03-31T16:07:58.257Z,99156.47
2023-03-31T16:10:25.886Z,99171.31
2023-03-31T16:13:00.692Z,99141.22
2023-03-31T16:15:40.836Z,99119.75
2023-03-31T16:18:14.529Z,99171.31
2023-03-31T16:20:46.099Z,99171.34
2023-03-31T16:23:26.210Z,99173.41
2023-03-31T16:25:53.786Z,99176.91
2023-03-31T16:28:23.682Z,99175.47
2023-03-31T16:30:50.819Z,99174.84
2023-03-31T16:33:20.052Z,99168.41
2023-03-31T16:35:53.723Z,99139.75
2023-03-31T16:38:22.351Z,99176.88
2023-03-31T16:40:51.662Z,99141.19
2023-03-31T16:43:22.392Z,99188.03
2023-03-31T16:45:52.920Z,99193.19
2023-03-31T16:48:21.489Z,99190.09
2023-03-31T16:50:50.295Z,99163.28
2023-03-31T16:53:19.987Z,99190.09
2023-03-31T16:55:47.150Z,99141.16
2023-03-31T16:58:13.966Z,99198.94
2023-03-31T17:00:41.451Z,99204.72
2023-03-31T17:03:10.020Z,99200.59
2023-03-31T17:05:45.144Z,99168.00
2023-03-31T17:08:12.960Z,99146.28
2023-03-31T17:10:40.718Z,99145.91
2023-03-31T17:13:08.627Z,99149.59
2023-03-31T17:15:36.686Z,99132.47
2023-03-31T17:18:04.456Z,99168.78
2023-03-31T17:20:31.553Z,99185.50
2023-03-31T17:22:58.646Z,99187.59
2023-03-31T17:25:25.983Z,99191.72
2023-03-31T17:27:52.444Z,99125.44
2023-03-31T17:30:24.653Z,99106.88
2023-03-31T17:32:52.269Z,99180.56
2023-03-31T17:35:23.413Z,99169.63
2023-03-31T17:37:53.371Z,99204.53
2023-03-31T17:40:20.992Z,99191.50
2023-03-31T17:42:47.437Z,99129.13
2023-03-31T17:45:14.680Z,99159.47
2023-03-31T17:47:41.988Z,99199.34
2023-03-31T17:50:09.372Z,99231.31
2023-03-31T17:52:36.136Z,99147.44
2023-03-31T17:55:04.216Z,99203.22
2023-03-31T17:57:40.951Z,99167.28
2023-03-31T18:00:10.446Z,99219.31
2023-03-31T18:02:38.424Z,99193.47
2023-03-31T18:05:06.916Z,99190.38
2023-03-31T18:07:34.799Z,99207.50
2023-03-31T18:10:02.156Z,99174.25
2023-03-31T18:12:29.595Z,99227.91
2023-03-31T18:14:56.670Z,99190.31
2023-03-31T18:17:23.209Z,99232.63
2023-03-31T18:19:49.839Z,99236.53
2023-03-31T18:22:16.330Z,99170.75
2023-03-31T18:24:44.323Z,99161.00
2023-03-31T18:27:10.811Z,99237.03
2023-03-31T18:29:39.337Z,99225.50
2023-03-31T18:32:06.488Z,99237.22
2023-03-31T18:34:33.687Z,99236.00
2023-03-31T18:37:00.245Z,99232.63
2023-03-31T18:39:27.441Z,99170.53
2023-03-31T18:41:54.237Z,99214.56
2023-03-31T18:44:21.712Z,99228.16
2023-03-31T18:46:48.709Z,99232.47
2023-03-31T18:49:15.365Z,99237.00
2023-03-31T18:51:41.936Z,99237.22
2023-03-31T18:54:08.669Z,99235.75
2023-03-31T18:56:35.356Z,99238.22
2023-03-31T18:59:04.233Z,99211.94
2023-03-31T19:01:39.627Z,99232.63
2023-03-31T19:04:07.806Z,99217.94
2023-03-31T19:06:35.834Z,99232.56
2023-03-31T19:09:02.310Z,99206.34
2023-03-31T19:11:28.852Z,99235.25
2023-03-31T19:13:55.946Z,99206.16
2023-03-31T19:16:24.574Z,99169.16
2023-03-31T19:18:51.264Z,99254.72
2023-03-31T19:21:17.777Z,99259.22
2023-03-31T19:23:44.222Z,99225.78
2023-03-31T19:26:15.703Z,99187.91
2023-03-31T19:28:42.523Z,99251.63
2023-03-31T19:31:10.907Z,99259.84
2023-03-31T19:33:37.553Z,99253.03
2023-03-31T19:36:04.348Z,99254.03
2023-03-31T19:38:32.598Z,99260.59
2023-03-31T19:40:59.995Z,99203.50
2023-03-31T19:43:27.225Z,99186.31
2023-03-31T19:45:56.857Z,99235.94
2023-03-31T19:48:26.425Z,99206.34
2023-03-31T19:50:55.872Z,99262.34
2023-03-31T19:53:23.581Z,99203.56
2023-03-31T19:55:59.132Z,99259.44
2023-03-31T19:58:27.129Z,99266.41
2023-03-31T20:00:55.293Z,99244.47
2023-03-31T20:03:24.191Z,99243.22
2023-03-31T20:05:51.853Z,99234.03
2023-03-31T20:08:18.268Z,99250.34
2023-03-31T20:10:44.969Z,99260.28
2023-03-31T20:13:11.890Z,99234.00
2023-03-31T20:15:39.747Z,99245.78
2023-03-31T20:18:07.279Z,99255.69
2023-03-31T20:20:34.324Z,99250.69
2023-03-31T20:23:00.950Z,99243.03
2023-03-31T20:25:27.911Z,99228.19
2023-03-31T20:27:54.845Z,99221.66
2023-03-31T20:30:21.505Z,99197.00
2023-03-31T20:32:47.992Z,99242.50
2023-03-31T20:35:14.524Z,99189.63
2023-03-31T20:37:40.985Z,99195.44
2023-03-31T20:40:07.996Z,99246.59
2023-03-31T20:42:35.884Z,99237.69
2023-03-31T20:45:03.070Z,99182.44
2023-03-31T20:47:29.527Z,99213.72
2023-03-31T20:49:55.982Z,99203.56
2023-03-31T20:52:23.019Z,99213.09
2023-03-31T20:54:49.534Z,99257.19
2023-03-31T20:57:16.419Z,99256.00
2023-03-31T20:59:42.932Z,99254.13
2023-03-31T21:02:12.903Z,99262.81
2023-03-31T21:04:39.407Z,99229.25
2023-03-31T21:07:06.147Z,99263.03
2023-03-31T21:09:33.029Z,99265.31
2023-03-31T21:12:00.882Z,99241.72
2023-03-31T21:14:27.467Z,99257.91
2023-03-31T21:16:54.027Z,99266.75
2023-03-31T21:19:21.095Z,99231.41
2023-03-31T21:21:47.537Z,99245.09
2023-03-31T21:24:14.923Z,99211.66
2023-03-31T21:26:41.510Z,99222.38
2023-03-31T21:29:08.233Z,99258.38
2023-03-31T21:31:35.179Z,99252.13
2023-03-31T21:34:02.600Z,99274.91
2023-03-31T21:36:29.228Z,99272.88
2023-03-31T21:38:57.322Z,99270.19
2023-03-31T21:41:30.553Z,99245.81
2023-03-31T21:44:00.567Z,99275.16
2023-03-31T21:46:30.629Z,99277.03
2023-03-31T21:48:57.617Z,99261.09
2023-03-31T21:51:25.716Z,99273.69
2023-03-31T21:53:55.336Z,99285.63
2023-03-31T21:56:23.399Z,99256.53
2023-03-31T21:58:50.874Z,99286.84
2023-03-31T22:01:18.464Z,99243.81
2023-03-31T22:03:45.667Z,99261.78
2023-03-31T22:06:12.537Z,99273.53
2023-03-31T22:08:39.896Z,99268.78
2023-03-31T22:11:08.018Z,99238.94
2023-03-31T22:13:35.333Z,99277.88
2023-03-31T22:16:03.771Z,99286.09
2023-03-31T22:18:30.653Z,99283.63
2023-03-31T22:20:57.581Z,99196.94
2023-03-31T22:23:24.436Z,99283.19
2023-03-31T22:25:51.314Z,99274.44
2023-03-31T22:28:17.955Z,99273.59
2023-03-31T22:30:44.516Z,99259.78
2023-03-31T22:33:11.293Z,99287.66
2023-03-31T22:35:37.829Z,99242.50
2023-03-31T22:38:06.177Z,99265.06
2023-03-31T22:40:34.966Z,99241.50
2023-03-31T22:43:01.696Z,99264.38
2023-03-31T22:45:28.322Z,99279.91
2023-03-31T22:47:55.050Z,99285.44
2023-03-31T22:50:21.602Z,99258.81
2023-03-31T22:52:48.162Z,99259.66
2023-03-31T22:55:14.668Z,99266.84
2023-03-31T22:57:41.268Z,99271.38
2023-03-31T23:00:09.113Z,99229.78
2023-03-31T23:02:35.842Z,99238.72
2023-03-31T23:05:02.494Z,99256.28
2023-03-31T23:07:29.870Z,99247.00
2023-03-31T23:09:56.283Z,99250.03
2023-03-31T23:12:25.771Z,99256.03
2023-03-31T23:14:52.283Z,99290.66
2023-03-31T23:17:19.003Z,99258.94
2023-03-31T23:19:48.596Z,99306.72
2023-03-31T23:22:15.336Z,99275.53
2023-03-31T23:24:42.056Z,99295.38
2023-03-31T23:27:24.802Z,99303.22
2023-03-31T23:29:51.254Z,99284.56
2023-03-31T23:32:18.028Z,99275.06
2023-03-31T23:34:44.527Z,99310.41
2023-03-31T23:37:13.214Z,99310.41
2023-03-31T23:39:39.877Z,99273.59
2023-03-31T23:42:07.574Z,99252.44
2023-03-31T23:44:37.056Z,99300.84
2023-03-31T23:47:04.891Z,99321.75
2023-03-31T23:49:38.864Z,99307.56
2023-03-31T23:52:05.735Z,99311.25
2023-03-31T23:54:32.728Z,99249.97
2023-03-31T23:56:59.291Z,99307.75
2023-03-31T23:59:28.989Z,99283.00
